Portada
METAR-TAF:

METAR-TAF

Aeroports :

Midway, Estats Units d'Amèrica

latitud: 28-13N, longitud: 177-22W, altitud: 4 m

Observació

L'informe es va fer fa 29 minuts, a les 22:56 UTC
Vent 7 kt del Nord-Est
Temperatura 25°C
Humitat 74%
Pressió 1026 hPa
Visibilitat: 9.7 km
Cel clar
calitja

METAR: PMDY 272256Z AUTO 05007KT 6SM HZ CLR 25/20 A3029 RMK AO2 SLP257 T02500200

Hora: 13:25 (23:25 UTC)

Pronòstic

L'informe es va fer fa 6 hores i 5 minuts, a les 17:20 UTC
Pronòstic vàlid del 27 a les 18 UTC al 28 a les 18 UTC
Vent 8 kt del Nord-Est
Visibilitat: 10 km
Núvols disperses a una alçada de 2000 ft
Núvols disperses a una alçada de 4000 ft
xàfecs en les proximitats

TAF: PMDY 271720Z 2718/2818 04008KT P6SM VCSH SCT020 SCT040

Observacions i pronòstics meteorològics de més de 4000 aeroports (METAR i TAF).

Les estacions disponibles són els punts grocs i vermells al mapa.

Posi el ratolí al punt desitjat per veure el nom de l'estació.

Feu clic per veure les observacions i els pronòstics meteorològics.

Per canviar el mapa: feu clic els botons verds amb una creu de color negre per apropar; al botó verd amb un guió per allunyar la imatge; o en les fletxes verdes per a mapes adjacents.


METAR-TAF: